createdAt,value
2019-04-07T00:00:54.249Z,23.40
2019-04-07T00:01:54.048Z,23.40
2019-04-07T00:02:54.598Z,24.00
2019-04-07T00:03:54.055Z,21.00
2019-04-07T00:04:54.562Z,24.80
2019-04-07T00:05:54.035Z,22.90
2019-04-07T00:06:54.446Z,23.00
2019-04-07T00:07:54.151Z,23.90
2019-04-07T00:08:54.409Z,27.80
2019-04-07T00:09:54.210Z,24.80
2019-04-07T00:10:53.995Z,22.80
2019-04-07T00:11:53.946Z,24.70
2019-04-07T00:12:53.975Z,22.00
2019-04-07T00:13:53.925Z,23.80
2019-04-07T00:14:54.124Z,24.80
2019-04-07T00:15:53.905Z,22.50
2019-04-07T00:16:53.874Z,25.10
2019-04-07T00:17:54.349Z,22.40
2019-04-07T00:18:53.862Z,27.00
2019-04-07T00:19:53.842Z,25.70
2019-04-07T00:20:54.070Z,25.20
2019-04-07T00:21:54.006Z,22.50
2019-04-07T00:22:53.823Z,21.60
2019-04-07T00:23:54.323Z,21.20
2019-04-07T00:24:53.824Z,25.50
2019-04-07T00:25:53.846Z,26.90
2019-04-07T00:26:53.770Z,22.50
2019-04-07T00:27:53.759Z,24.60
2019-04-07T00:28:53.749Z,20.60
2019-04-07T00:29:54.277Z,23.00
2019-04-07T00:30:53.775Z,24.30
2019-04-07T00:31:53.715Z,26.00
2019-04-07T00:32:53.708Z,24.10
2019-04-07T00:33:53.694Z,26.20
2019-04-07T00:34:54.041Z,25.20
2019-04-07T00:35:53.677Z,22.30
2019-04-07T00:36:53.723Z,24.10
2019-04-07T00:37:53.854Z,23.70
2019-04-07T00:38:53.819Z,22.40
2019-04-07T00:39:54.097Z,24.70
2019-04-07T00:40:54.128Z,23.10
2019-04-07T00:41:53.632Z,21.50
2019-04-07T00:42:53.607Z,24.20
2019-04-07T00:43:53.579Z,23.80
2019-04-07T00:44:53.574Z,22.50
2019-04-07T00:45:53.556Z,22.90
2019-04-07T00:46:54.045Z,25.10
2019-04-07T00:47:53.682Z,23.50
2019-04-07T00:48:53.947Z,24.30
2019-04-07T00:49:53.520Z,22.60
2019-04-07T00:50:53.805Z,23.30
2019-04-07T00:51:53.850Z,23.90
2019-04-07T00:52:53.483Z,23.60
2019-04-07T00:53:53.915Z,24.80
2019-04-07T00:54:53.508Z,21.40
2019-04-07T00:55:54.007Z,25.60
2019-04-07T00:56:53.440Z,25.20
2019-04-07T00:57:53.419Z,23.80
2019-04-07T00:58:53.424Z,21.40
2019-04-07T00:59:54.044Z,20.40
2019-04-07T01:00:53.732Z,23.00
2019-04-07T01:01:53.738Z,21.20
2019-04-07T01:02:54.055Z,23.70
2019-04-07T01:03:53.463Z,21.40
2019-04-07T01:04:53.420Z,24.20
2019-04-07T01:05:53.335Z,22.10
2019-04-07T01:06:53.722Z,23.90
2019-04-07T01:07:53.333Z,21.80
2019-04-07T01:08:53.686Z,19.70
2019-04-07T01:09:53.346Z,21.10
2019-04-07T01:10:53.350Z,21.90
2019-04-07T01:11:53.848Z,24.30
2019-04-07T01:12:53.361Z,23.70
2019-04-07T01:13:53.940Z,21.70
2019-04-07T01:14:53.370Z,23.80
2019-04-07T01:15:53.759Z,23.50
2019-04-07T01:16:53.363Z,23.80
2019-04-07T01:17:53.338Z,25.50
2019-04-07T01:18:53.509Z,22.90
2019-04-07T01:19:53.575Z,22.20
2019-04-07T01:20:53.193Z,23.60
2019-04-07T01:21:53.591Z,24.10
2019-04-07T01:22:53.155Z,22.20
2019-04-07T01:23:53.286Z,27.40
2019-04-07T01:24:53.379Z,26.30
2019-04-07T01:25:53.186Z,24.70
2019-04-07T01:26:53.542Z,23.10
2019-04-07T01:27:53.108Z,22.90
2019-04-07T01:28:54.506Z,24.00
2019-04-07T01:29:53.061Z,23.30
2019-04-07T01:30:53.342Z,20.40
2019-04-07T01:31:53.314Z,22.70
2019-04-07T01:32:53.291Z,20.90
2019-04-07T01:33:53.182Z,22.90
2019-04-07T01:34:53.163Z,23.70
2019-04-07T01:35:53.065Z,23.70
2019-04-07T01:36:53.476Z,20.40
2019-04-07T01:37:52.993Z,21.90
2019-04-07T01:38:53.299Z,22.70
2019-04-07T01:39:52.965Z,22.30
2019-04-07T01:40:52.956Z,25.20
2019-04-07T01:41:52.936Z,20.20
2019-04-07T01:42:53.006Z,23.30
2019-04-07T01:43:53.565Z,23.10
2019-04-07T01:44:52.916Z,22.40
2019-04-07T01:45:53.394Z,22.00
2019-04-07T01:46:53.423Z,24.20
2019-04-07T01:47:52.906Z,22.70
2019-04-07T01:48:53.276Z,20.70
2019-04-07T01:49:52.860Z,22.80
2019-04-07T01:50:52.858Z,20.90
2019-04-07T01:51:53.000Z,20.20
2019-04-07T01:52:53.388Z,22.80
2019-04-07T01:53:53.140Z,21.80
2019-04-07T01:54:52.787Z,24.80
2019-04-07T01:55:52.785Z,22.70
2019-04-07T01:56:52.790Z,21.10
2019-04-07T01:57:52.780Z,22.30
2019-04-07T01:58:52.762Z,23.70
2019-04-07T01:59:52.816Z,25.50
2019-04-07T02:00:52.731Z,22.60
2019-04-07T02:01:52.724Z,21.80
2019-04-07T02:02:52.726Z,23.60
2019-04-07T02:03:52.787Z,24.10
2019-04-07T02:04:52.874Z,21.30
2019-04-07T02:05:59.296Z,22.60
2019-04-07T02:06:53.654Z,22.70
2019-04-07T02:07:53.235Z,24.60
2019-04-07T02:08:52.871Z,24.40
2019-04-07T02:09:53.325Z,24.30
2019-04-07T02:10:52.628Z,22.60
2019-04-07T02:11:52.987Z,21.20
2019-04-07T02:12:53.168Z,22.30
2019-04-07T02:13:53.254Z,26.40
2019-04-07T02:14:53.270Z,22.00
2019-04-07T02:15:52.695Z,23.10
2019-04-07T02:16:52.681Z,23.10
2019-04-07T02:17:52.872Z,24.90
2019-04-07T02:18:53.268Z,21.30
2019-04-07T02:19:52.504Z,25.70
2019-04-07T02:20:53.029Z,23.50
2019-04-07T02:21:53.011Z,21.00
2019-04-07T02:22:53.137Z,22.90
2019-04-07T02:23:52.689Z,22.50
2019-04-07T02:24:52.450Z,23.00
2019-04-07T02:25:52.750Z,22.50
2019-04-07T02:26:52.447Z,25.30
2019-04-07T02:27:52.473Z,25.20
2019-04-07T02:28:52.609Z,21.10
2019-04-07T02:29:52.830Z,21.30
2019-04-07T02:30:52.381Z,24.70
2019-04-07T02:31:52.374Z,22.70
2019-04-07T02:32:52.521Z,24.50
2019-04-07T02:33:52.520Z,26.80
2019-04-07T02:34:53.044Z,27.30
2019-04-07T02:35:52.554Z,25.10
2019-04-07T02:36:52.324Z,21.40
2019-04-07T02:37:52.886Z,21.40
2019-04-07T02:38:52.333Z,22.80
2019-04-07T02:39:52.294Z,23.40
2019-04-07T02:40:52.282Z,24.50
2019-04-07T02:41:52.285Z,23.60
2019-04-07T02:42:52.252Z,23.70
2019-04-07T02:43:53.001Z,20.40
2019-04-07T02:44:52.540Z,24.20
2019-04-07T02:45:52.383Z,21.50
2019-04-07T02:46:52.213Z,25.50
2019-04-07T02:47:53.120Z,23.70
2019-04-07T02:48:52.206Z,23.70
2019-04-07T02:49:52.656Z,24.00
2019-04-07T02:50:52.858Z,24.80
2019-04-07T02:51:52.982Z,23.20
2019-04-07T02:52:52.863Z,23.20
2019-04-07T02:53:53.133Z,24.00
2019-04-07T02:54:52.950Z,25.50
2019-04-07T02:55:52.109Z,25.30
2019-04-07T02:56:52.408Z,24.70
2019-04-07T02:57:52.129Z,24.50
2019-04-07T02:58:52.738Z,22.80
2019-04-07T02:59:52.083Z,22.60
2019-04-07T03:00:52.280Z,24.30
2019-04-07T03:01:52.098Z,22.10
2019-04-07T03:02:52.030Z,22.20
2019-04-07T03:03:52.045Z,21.60
2019-04-07T03:04:52.438Z,23.70
2019-04-07T03:05:52.016Z,26.40
2019-04-07T03:06:53.486Z,24.50
2019-04-07T03:07:53.028Z,23.60
2019-04-07T03:08:52.632Z,22.80
2019-04-07T03:09:51.948Z,23.50
2019-04-07T03:10:51.945Z,23.60
2019-04-07T03:11:52.460Z,22.90
2019-04-07T03:12:51.960Z,24.10
2019-04-07T03:13:52.158Z,26.60
2019-04-07T03:14:52.919Z,24.70
2019-04-07T03:15:52.755Z,24.80
2019-04-07T03:16:51.925Z,28.20
2019-04-07T03:17:52.001Z,24.00
2019-04-07T03:18:52.830Z,21.20
2019-04-07T03:19:52.164Z,27.00
2019-04-07T03:20:51.833Z,27.30
2019-04-07T03:21:52.495Z,23.40
2019-04-07T03:22:52.616Z,23.10
2019-04-07T03:23:51.813Z,25.00
2019-04-07T03:24:52.090Z,24.20
2019-04-07T03:25:52.620Z,25.50
2019-04-07T03:26:51.766Z,24.90
2019-04-07T03:27:52.706Z,28.40
2019-04-07T03:28:52.518Z,24.20
2019-04-07T03:29:51.744Z,23.70
2019-04-07T03:30:52.455Z,26.40
2019-04-07T03:31:53.225Z,28.60
2019-04-07T03:32:54.406Z,22.10
2019-04-07T03:33:52.317Z,29.30
2019-04-07T03:34:53.535Z,25.10
2019-04-07T03:35:55.329Z,23.20
2019-04-07T03:37:14.963Z,22.70
2019-04-07T03:37:53.198Z,22.30
2019-04-07T03:38:51.678Z,25.20
2019-04-07T03:39:52.522Z,22.80
2019-04-07T03:40:51.660Z,24.40
2019-04-07T03:41:52.615Z,24.70
2019-04-07T03:42:51.583Z,26.20
2019-04-07T03:43:51.573Z,23.20
2019-04-07T03:44:51.591Z,24.50
2019-04-07T03:45:51.938Z,25.50
2019-04-07T03:46:51.555Z,24.90
2019-04-07T03:47:52.359Z,26.10
2019-04-07T03:48:51.527Z,26.50
2019-04-07T03:49:51.524Z,29.20
2019-04-07T03:50:51.494Z,23.70
2019-04-07T03:51:51.639Z,24.70
2019-04-07T03:52:51.482Z,24.80
2019-04-07T03:53:52.091Z,23.70
2019-04-07T03:54:51.463Z,27.70
2019-04-07T03:55:51.455Z,25.80
2019-04-07T03:56:51.819Z,26.50
2019-04-07T03:57:51.416Z,26.60
2019-04-07T03:58:51.425Z,28.30
2019-04-07T03:59:51.429Z,27.00
2019-04-07T04:00:51.382Z,23.40
2019-04-07T04:01:51.730Z,24.90
2019-04-07T04:02:51.377Z,24.30
2019-04-07T04:03:51.447Z,24.80
2019-04-07T04:04:51.588Z,29.00
2019-04-07T04:05:53.458Z,25.40
2019-04-07T04:06:51.566Z,22.90
2019-04-07T04:07:51.321Z,29.10
2019-04-07T04:08:51.304Z,24.40
2019-04-07T04:09:51.770Z,25.20
2019-04-07T04:10:51.712Z,23.60
2019-04-07T04:11:51.648Z,26.60
2019-04-07T04:12:51.315Z,24.00
2019-04-07T04:13:51.247Z,27.30
2019-04-07T04:14:51.258Z,24.80
2019-04-07T04:15:51.562Z,26.80
2019-04-07T04:16:51.223Z,25.10
2019-04-07T04:17:51.368Z,28.70
2019-04-07T04:18:51.188Z,28.60
2019-04-07T04:19:51.906Z,28.60
2019-04-07T04:20:51.180Z,27.10
2019-04-07T04:21:51.468Z,26.00
2019-04-07T04:22:51.154Z,30.30
2019-04-07T04:23:51.664Z,23.50
2019-04-07T04:24:51.127Z,26.80
2019-04-07T04:25:51.127Z,25.10
2019-04-07T04:26:51.913Z,26.30
2019-04-07T04:27:51.130Z,27.60
2019-04-07T04:28:51.877Z,26.80
2019-04-07T04:29:53.025Z,28.20
2019-04-07T04:30:51.083Z,28.50
2019-04-07T04:31:51.080Z,26.80
2019-04-07T04:32:51.038Z,26.30
2019-04-07T04:33:51.733Z,28.20
2019-04-07T04:34:51.306Z,28.90
2019-04-07T04:35:51.852Z,25.90
2019-04-07T04:36:51.760Z,28.10
2019-04-07T04:37:53.456Z,23.80
2019-04-07T04:38:52.362Z,26.60
2019-04-07T04:39:51.250Z,27.60
2019-04-07T04:40:50.943Z,26.50
2019-04-07T04:41:51.807Z,28.00
2019-04-07T04:42:51.801Z,27.60
2019-04-07T04:43:50.932Z,29.20
2019-04-07T04:44:51.053Z,26.30
2019-04-07T04:45:50.892Z,28.70
2019-04-07T04:46:50.907Z,27.70
2019-04-07T04:47:51.625Z,27.30
2019-04-07T04:48:51.368Z,28.40
2019-04-07T04:49:50.839Z,30.90
2019-04-07T04:50:50.842Z,31.30
2019-04-07T04:51:50.837Z,28.60
2019-04-07T04:52:50.824Z,27.10
2019-04-07T04:53:51.700Z,24.50
2019-04-07T04:54:51.803Z,29.60
2019-04-07T04:55:51.473Z,28.20
2019-04-07T04:56:51.575Z,27.00
2019-04-07T04:57:51.205Z,27.70
2019-04-07T04:58:50.840Z,26.10
2019-04-07T04:59:50.775Z,28.70
2019-04-07T05:00:50.923Z,27.40
2019-04-07T05:01:51.289Z,32.20
2019-04-07T05:02:51.324Z,26.70
2019-04-07T05:03:52.363Z,27.70
2019-04-07T05:04:50.697Z,28.00
2019-04-07T05:05:51.235Z,30.50
2019-04-07T05:06:51.462Z,29.50
2019-04-07T05:07:59.269Z,25.10
2019-04-07T05:08:51.632Z,30.50
2019-04-07T05:09:53.932Z,27.30
2019-04-07T05:10:50.980Z,30.20
2019-04-07T05:11:51.346Z,28.80
2019-04-07T05:12:50.585Z,28.20
2019-04-07T05:13:50.576Z,29.70
2019-04-07T05:14:50.558Z,29.60
2019-04-07T05:15:51.088Z,28.70
2019-04-07T05:16:50.556Z,28.20
2019-04-07T05:17:50.525Z,26.30
2019-04-07T05:18:50.515Z,25.90
2019-04-07T05:19:50.976Z,28.70
2019-04-07T05:20:50.487Z,30.10
2019-04-07T05:21:50.528Z,27.60
2019-04-07T05:22:51.217Z,25.50
2019-04-07T05:23:50.463Z,27.70
2019-04-07T05:24:50.538Z,28.40
2019-04-07T05:25:50.511Z,32.40
2019-04-07T05:26:50.898Z,31.50
2019-04-07T05:27:50.422Z,29.00
2019-04-07T05:28:50.516Z,27.10
2019-04-07T05:29:51.028Z,28.30
2019-04-07T05:30:50.398Z,28.10
2019-04-07T05:31:50.406Z,28.40
2019-04-07T05:32:50.367Z,25.50
2019-04-07T05:33:50.842Z,33.20
2019-04-07T05:34:50.563Z,28.00
2019-04-07T05:35:50.442Z,28.00
2019-04-07T05:36:50.375Z,28.00
2019-04-07T05:38:00.782Z,26.80
2019-04-07T05:38:51.299Z,27.00
2019-04-07T05:39:50.292Z,29.90
2019-04-07T05:40:50.946Z,30.70
2019-04-07T05:41:50.262Z,28.00
2019-04-07T05:42:50.982Z,30.10
2019-04-07T05:43:50.291Z,30.00
2019-04-07T05:44:50.681Z,34.60
2019-04-07T05:45:50.921Z,31.90
2019-04-07T05:46:50.229Z,27.70
2019-04-07T05:47:50.844Z,29.10
2019-04-07T05:48:52.004Z,27.10
2019-04-07T05:49:54.470Z,28.80
2019-04-07T05:50:51.383Z,30.20
2019-04-07T05:51:50.232Z,27.70
2019-04-07T05:52:50.754Z,27.80
2019-04-07T05:53:50.138Z,25.10
2019-04-07T05:54:51.465Z,27.80
2019-04-07T05:55:53.441Z,31.00
2019-04-07T05:56:50.264Z,27.40
2019-04-07T05:57:50.100Z,27.00
2019-04-07T05:58:50.075Z,28.70
2019-04-07T05:59:50.386Z,29.50
2019-04-07T06:00:50.235Z,30.70
2019-04-07T06:01:52.512Z,28.20
2019-04-07T06:02:51.629Z,27.10
2019-04-07T06:03:50.027Z,28.50
2019-04-07T06:04:50.017Z,26.50
2019-04-07T06:05:51.180Z,28.80
2019-04-07T06:06:52.689Z,30.10
2019-04-07T06:07:51.468Z,27.90
2019-04-07T06:08:50.643Z,29.00
2019-04-07T06:09:51.237Z,31.90
2019-04-07T06:10:50.052Z,26.50
2019-04-07T06:11:49.927Z,32.10
2019-04-07T06:12:49.973Z,29.30
2019-04-07T06:13:50.500Z,27.50
2019-04-07T06:14:49.902Z,27.40
2019-04-07T06:15:51.379Z,31.10
2019-04-07T06:16:53.626Z,26.60
2019-04-07T06:17:51.206Z,27.30
2019-04-07T06:18:50.120Z,28.00
2019-04-07T06:19:51.624Z,28.60
2019-04-07T06:20:50.487Z,31.30
2019-04-07T06:21:49.930Z,30.30
2019-04-07T06:22:52.809Z,27.60
2019-04-07T06:23:49.819Z,27.30
2019-04-07T06:24:50.246Z,31.40
2019-04-07T06:25:50.130Z,28.00
2019-04-07T06:26:50.349Z,25.90
2019-04-07T06:27:50.094Z,29.20
2019-04-07T06:28:54.586Z,27.70
2019-04-07T06:29:51.242Z,32.20
2019-04-07T06:30:49.721Z,27.30
2019-04-07T06:31:49.835Z,30.60
2019-04-07T06:32:49.865Z,27.50
2019-04-07T06:33:49.945Z,29.70
2019-04-07T06:34:50.656Z,31.00
2019-04-07T06:35:49.936Z,27.00
2019-04-07T06:36:53.628Z,28.60
2019-04-07T06:37:50.839Z,30.10
2019-04-07T06:38:51.792Z,31.00
2019-04-07T06:39:51.552Z,28.10
2019-04-07T06:40:50.826Z,27.90
2019-04-07T06:41:49.599Z,31.60
2019-04-07T06:42:49.935Z,34.20
2019-04-07T06:43:49.704Z,27.70
2019-04-07T06:44:51.110Z,28.60
2019-04-07T06:45:52.786Z,29.40
2019-04-07T06:46:49.603Z,29.40
2019-04-07T06:47:49.742Z,29.70
2019-04-07T06:48:49.711Z,33.50
2019-04-07T06:49:49.507Z,31.70
2019-04-07T06:50:56.027Z,31.80
2019-04-07T06:51:51.132Z,30.70
2019-04-07T06:52:49.475Z,28.40
2019-04-07T06:53:50.255Z,28.80
2019-04-07T06:54:53.495Z,30.40
2019-04-07T06:55:50.674Z,30.50
2019-04-07T06:56:49.891Z,30.80
2019-04-07T06:57:49.431Z,28.80
2019-04-07T06:58:49.441Z,30.10
2019-04-07T06:59:50.025Z,28.40
2019-04-07T07:00:51.792Z,32.20
2019-04-07T07:01:49.375Z,31.80
2019-04-07T07:02:49.943Z,29.60
2019-04-07T07:03:49.696Z,29.80
2019-04-07T07:04:49.698Z,30.80
2019-04-07T07:05:49.545Z,30.70
2019-04-07T07:06:49.312Z,32.10
2019-04-07T07:07:49.829Z,28.30
2019-04-07T07:08:52.904Z,31.90
2019-04-07T07:09:50.300Z,31.00
2019-04-07T07:10:50.554Z,31.20
2019-04-07T07:11:49.639Z,30.00
2019-04-07T07:12:49.601Z,31.80
2019-04-07T07:13:49.915Z,31.80
2019-04-07T07:14:49.615Z,32.40
2019-04-07T07:15:49.383Z,32.30
2019-04-07T07:16:49.888Z,31.80
2019-04-07T07:17:50.770Z,31.60
2019-04-07T07:18:51.192Z,33.30
2019-04-07T07:19:49.798Z,30.30
2019-04-07T07:20:50.554Z,29.80
2019-04-07T07:21:49.153Z,31.10
2019-04-07T07:22:49.627Z,32.40
2019-04-07T07:23:50.005Z,31.30
2019-04-07T07:24:49.195Z,37.20
2019-04-07T07:25:49.879Z,33.40
2019-04-07T07:26:49.505Z,31.00
2019-04-07T07:27:49.086Z,32.40
2019-04-07T07:28:49.186Z,29.30
2019-04-07T07:29:52.548Z,28.40
2019-04-07T07:30:51.895Z,27.30
2019-04-07T07:31:52.002Z,32.20
2019-04-07T07:32:49.748Z,31.40
2019-04-07T07:33:49.573Z,30.70
2019-04-07T07:34:49.645Z,29.50
2019-04-07T07:35:49.314Z,31.00
2019-04-07T07:36:52.316Z,30.70
2019-04-07T07:37:50.045Z,28.80
2019-04-07T07:38:57.594Z,30.70
2019-04-07T07:39:50.773Z,27.40
2019-04-07T07:40:49.372Z,29.50
2019-04-07T07:41:51.690Z,31.80
2019-04-07T07:42:50.873Z,28.70
2019-04-07T07:43:48.915Z,29.60
2019-04-07T07:44:49.294Z,31.80
2019-04-07T07:45:48.920Z,29.60
2019-04-07T07:46:50.422Z,33.10
2019-04-07T07:47:52.286Z,29.80
2019-04-07T07:48:50.063Z,32.40
2019-04-07T07:49:48.843Z,27.70
2019-04-07T07:50:48.865Z,31.80
2019-04-07T07:51:48.811Z,30.50
2019-04-07T07:52:51.273Z,28.40
2019-04-07T07:53:48.834Z,28.60
2019-04-07T07:54:49.422Z,33.20
2019-04-07T07:55:49.013Z,26.90
2019-04-07T07:56:50.494Z,29.20
2019-04-07T07:57:49.145Z,28.20
2019-04-07T07:58:49.318Z,27.90
2019-04-07T07:59:48.742Z,28.10
2019-04-07T08:00:48.739Z,29.80
2019-04-07T08:01:51.151Z,30.90
2019-04-07T08:02:50.909Z,28.70
2019-04-07T08:03:51.846Z,30.20
2019-04-07T08:04:48.807Z,26.80
2019-04-07T08:05:48.737Z,26.90
2019-04-07T08:06:48.979Z,28.10
2019-04-07T08:07:50.165Z,29.00
2019-04-07T08:08:48.866Z,31.70
2019-04-07T08:09:49.132Z,31.50
2019-04-07T08:10:48.629Z,26.80
2019-04-07T08:11:48.972Z,28.00
2019-04-07T08:12:49.606Z,25.50
2019-04-07T08:13:48.585Z,28.10
2019-04-07T08:14:52.205Z,25.60
2019-04-07T08:15:50.342Z,26.00
2019-04-07T08:16:49.053Z,27.10
2019-04-07T08:17:48.617Z,32.30
2019-04-07T08:18:48.525Z,26.50
2019-04-07T08:19:48.502Z,24.30
2019-04-07T08:20:49.057Z,27.40
2019-04-07T08:21:51.000Z,24.70
2019-04-07T08:22:49.262Z,27.30
2019-04-07T08:23:49.127Z,25.80
2019-04-07T08:24:51.160Z,28.50
2019-04-07T08:25:48.922Z,24.90
2019-04-07T08:26:48.865Z,23.90
2019-04-07T08:27:48.771Z,24.30
2019-04-07T08:28:49.249Z,25.00
2019-04-07T08:29:48.563Z,22.90
2019-04-07T08:30:49.098Z,22.30
2019-04-07T08:31:51.548Z,23.10
2019-04-07T08:32:50.022Z,26.60
2019-04-07T08:33:50.713Z,22.70
2019-04-07T08:34:48.335Z,25.80
2019-04-07T08:35:49.063Z,23.40
2019-04-07T08:36:48.321Z,23.00
2019-04-07T08:37:49.206Z,23.10
2019-04-07T08:38:51.752Z,23.70
2019-04-07T08:39:49.701Z,23.30
2019-04-07T08:40:49.671Z,27.00
2019-04-07T08:41:48.308Z,26.00
2019-04-07T08:42:49.647Z,25.00
2019-04-07T08:43:48.411Z,24.00
2019-04-07T08:44:48.233Z,23.90
2019-04-07T08:45:48.234Z,24.70
2019-04-07T08:46:48.542Z,23.70
2019-04-07T08:47:49.931Z,26.80
2019-04-07T08:48:51.775Z,25.10
2019-04-07T08:49:49.531Z,23.70
2019-04-07T08:50:48.598Z,21.10
2019-04-07T08:51:48.353Z,27.00
2019-04-07T08:52:48.173Z,23.00
2019-04-07T08:53:48.426Z,28.90
2019-04-07T08:54:50.597Z,25.40
2019-04-07T08:55:49.883Z,24.60
2019-04-07T08:56:48.668Z,28.50
2019-04-07T08:57:48.085Z,25.50
2019-04-07T08:58:48.124Z,24.50
2019-04-07T08:59:48.160Z,23.50
2019-04-07T09:00:51.017Z,24.20
2019-04-07T09:01:52.281Z,23.90
2019-04-07T09:03:00.900Z,22.10
2019-04-07T09:03:49.642Z,20.30
2019-04-07T09:04:51.280Z,20.80
2019-04-07T09:05:48.001Z,23.20
2019-04-07T09:06:48.777Z,21.60
2019-04-07T09:07:47.991Z,23.00
2019-04-07T09:08:47.958Z,20.90
2019-04-07T09:09:49.081Z,21.20
2019-04-07T09:10:49.617Z,23.70
2019-04-07T09:11:48.074Z,18.90
2019-04-07T09:12:48.576Z,19.10
2019-04-07T09:13:48.654Z,22.00
2019-04-07T09:14:47.924Z,21.70
2019-04-07T09:15:49.646Z,22.00
2019-04-07T09:16:52.165Z,24.30
2019-04-07T09:17:49.520Z,22.20
2019-04-07T09:18:54.303Z,33.00
2019-04-07T09:19:49.558Z,25.80
2019-04-07T09:20:49.322Z,24.50
2019-04-07T09:21:50.461Z,20.80
2019-04-07T09:22:51.136Z,21.80
2019-04-07T09:23:47.903Z,19.50
2019-04-07T09:24:48.315Z,22.10
2019-04-07T09:25:47.781Z,18.60
2019-04-07T09:26:47.773Z,18.10
2019-04-07T09:27:48.604Z,17.50
2019-04-07T09:28:47.748Z,20.60
2019-04-07T09:29:47.855Z,18.60
2019-04-07T09:30:48.329Z,19.30
2019-04-07T09:31:47.753Z,20.30
2019-04-07T09:32:48.566Z,21.00
2019-04-07T09:33:48.969Z,20.40
2019-04-07T09:34:50.551Z,18.60
2019-04-07T09:35:47.673Z,18.70
2019-04-07T09:36:50.165Z,17.40
2019-04-07T09:37:48.208Z,18.60
2019-04-07T09:38:50.027Z,19.00
2019-04-07T09:39:56.979Z,21.20
2019-04-07T09:40:48.663Z,15.30
2019-04-07T09:41:47.601Z,17.50
2019-04-07T09:42:47.705Z,17.10
2019-04-07T09:43:48.443Z,15.40
2019-04-07T09:44:47.587Z,16.00
2019-04-07T09:45:47.958Z,19.80
2019-04-07T09:46:50.285Z,19.50
2019-04-07T09:47:48.474Z,15.30
2019-04-07T09:48:50.945Z,16.10
2019-04-07T09:49:49.164Z,17.10
2019-04-07T09:50:48.158Z,16.30
2019-04-07T09:51:47.496Z,15.40
2019-04-07T09:52:49.051Z,18.40
2019-04-07T09:53:50.231Z,16.00
2019-04-07T09:54:47.455Z,15.70
2019-04-07T09:55:47.461Z,17.70
2019-04-07T09:56:47.450Z,19.80
2019-04-07T09:57:50.267Z,19.80
2019-04-07T09:58:47.442Z,19.00
2019-04-07T09:59:50.773Z,19.90
2019-04-07T10:00:50.192Z,21.60
2019-04-07T10:01:47.435Z,18.90
2019-04-07T10:02:48.067Z,15.00
2019-04-07T10:03:47.379Z,17.90
2019-04-07T10:04:47.351Z,16.70
2019-04-07T10:05:47.335Z,18.80
2019-04-07T10:06:49.472Z,18.80
2019-04-07T10:07:47.892Z,16.30
2019-04-07T10:08:47.797Z,20.70
2019-04-07T10:09:47.303Z,16.50
2019-04-07T10:10:47.322Z,17.80
2019-04-07T10:11:47.431Z,19.90
2019-04-07T10:12:47.266Z,17.90
2019-04-07T10:13:47.518Z,18.40
2019-04-07T10:14:47.254Z,16.90
2019-04-07T10:15:47.470Z,16.50
2019-04-07T10:16:47.362Z,19.90
2019-04-07T10:17:47.207Z,17.60
2019-04-07T10:18:47.350Z,16.50
2019-04-07T10:19:47.793Z,17.10
2019-04-07T10:20:47.169Z,19.60
2019-04-07T10:21:47.534Z,21.40
2019-04-07T10:22:47.385Z,18.70
2019-04-07T10:23:49.439Z,17.20
2019-04-07T10:24:47.187Z,14.70
2019-04-07T10:25:47.112Z,19.00
2019-04-07T10:26:47.349Z,20.20
2019-04-07T10:27:47.094Z,16.70
2019-04-07T10:28:49.442Z,18.60
2019-04-07T10:29:47.108Z,18.50
2019-04-07T10:30:47.210Z,17.70
2019-04-07T10:31:47.502Z,17.20
2019-04-07T10:32:47.028Z,18.90
2019-04-07T10:33:47.167Z,18.60
2019-04-07T10:34:47.015Z,18.10
2019-04-07T10:35:47.579Z,18.70
2019-04-07T10:36:47.520Z,18.00
2019-04-07T10:37:47.179Z,18.40
2019-04-07T10:38:48.023Z,20.90
2019-04-07T10:39:46.952Z,17.70
2019-04-07T10:40:46.961Z,16.30
2019-04-07T10:41:47.525Z,19.70
2019-04-07T10:42:46.916Z,18.30
2019-04-07T10:43:47.784Z,15.60
2019-04-07T10:44:46.941Z,18.10
2019-04-07T10:45:46.903Z,18.50
2019-04-07T10:46:47.130Z,17.70
2019-04-07T10:47:46.880Z,19.30
2019-04-07T10:48:47.738Z,18.30
2019-04-07T10:49:57.929Z,22.20
2019-04-07T10:50:48.064Z,22.10
2019-04-07T10:51:47.678Z,15.70
2019-04-07T10:52:47.000Z,17.30
2019-04-07T10:53:47.260Z,18.60
2019-04-07T10:54:47.260Z,17.30
2019-04-07T10:55:46.778Z,18.30
2019-04-07T10:56:47.925Z,18.00
2019-04-07T10:57:46.958Z,15.90
2019-04-07T10:58:47.203Z,19.10
2019-04-07T10:59:47.440Z,18.70
2019-04-07T11:00:49.418Z,19.60
2019-04-07T11:01:46.780Z,20.80
2019-04-07T11:02:46.713Z,20.30
2019-04-07T11:03:46.836Z,19.10
2019-04-07T11:04:47.375Z,16.40
2019-04-07T11:05:46.660Z,16.20
2019-04-07T11:06:46.666Z,17.50
2019-04-07T11:07:46.642Z,17.10
2019-04-07T11:08:46.645Z,17.80
2019-04-07T11:09:47.514Z,18.40
2019-04-07T11:10:46.789Z,19.50
2019-04-07T11:11:48.139Z,18.30
2019-04-07T11:12:46.906Z,18.60
2019-04-07T11:13:46.979Z,17.90
2019-04-07T11:14:46.634Z,21.00
2019-04-07T11:15:46.562Z,21.10
2019-04-07T11:16:47.036Z,18.70
2019-04-07T11:17:47.239Z,18.80
2019-04-07T11:18:46.520Z,16.60
2019-04-07T11:19:46.532Z,17.80
2019-04-07T11:20:47.209Z,21.00
2019-04-07T11:21:46.765Z,18.60
2019-04-07T11:22:46.475Z,18.00
2019-04-07T11:23:46.885Z,16.80
2019-04-07T11:24:46.964Z,19.20
2019-04-07T11:25:47.726Z,18.50
2019-04-07T11:26:46.465Z,17.30
2019-04-07T11:27:46.808Z,16.90
2019-04-07T11:28:46.919Z,14.70
2019-04-07T11:29:46.407Z,15.60
2019-04-07T11:30:47.254Z,18.30
2019-04-07T11:31:46.533Z,16.70
2019-04-07T11:32:46.382Z,14.00
2019-04-07T11:33:47.030Z,13.70
2019-04-07T11:34:46.680Z,15.60
2019-04-07T11:35:46.331Z,15.80
2019-04-07T11:36:46.336Z,15.50
2019-04-07T11:37:46.320Z,15.30
2019-04-07T11:38:46.327Z,17.40
2019-04-07T11:39:46.374Z,17.00
2019-04-07T11:40:50.157Z,16.50
2019-04-07T11:41:47.100Z,14.90
2019-04-07T11:42:46.267Z,15.90
2019-04-07T11:43:46.853Z,16.60
2019-04-07T11:44:46.773Z,14.20
2019-04-07T11:45:56.463Z,16.30
2019-04-07T11:46:47.226Z,14.30
2019-04-07T11:47:46.863Z,15.60
2019-04-07T11:48:46.837Z,15.80
2019-04-07T11:49:46.267Z,13.80
2019-04-07T11:50:46.209Z,15.10
2019-04-07T11:51:46.749Z,16.40
2019-04-07T11:52:46.244Z,15.00
2019-04-07T11:53:46.129Z,15.80
2019-04-07T11:54:46.131Z,16.60
2019-04-07T11:55:46.488Z,16.70
2019-04-07T11:56:47.140Z,16.70
2019-04-07T11:57:46.081Z,19.30
2019-04-07T11:58:46.080Z,17.20
2019-04-07T11:59:46.169Z,17.60
2019-04-07T12:00:46.299Z,17.00
2019-04-07T12:01:49.502Z,17.40
2019-04-07T12:02:46.937Z,18.40
2019-04-07T12:03:46.367Z,15.60
2019-04-07T12:04:46.686Z,19.90
2019-04-07T12:05:46.126Z,17.30
2019-04-07T12:06:48.829Z,17.70
2019-04-07T12:07:45.984Z,20.10
2019-04-07T12:08:46.695Z,15.80
2019-04-07T12:09:46.701Z,17.40
2019-04-07T12:10:56.207Z,16.60
2019-04-07T12:11:46.961Z,16.90
2019-04-07T12:12:45.960Z,17.00
2019-04-07T12:13:46.666Z,16.80
2019-04-07T12:14:50.005Z,15.00
2019-04-07T12:15:46.904Z,16.10
2019-04-07T12:16:46.016Z,14.90
2019-04-07T12:17:46.042Z,14.90
2019-04-07T12:18:49.371Z,14.90
2019-04-07T12:19:47.321Z,16.50
2019-04-07T12:20:46.186Z,17.00
2019-04-07T12:21:45.825Z,15.90
2019-04-07T12:22:48.751Z,18.40
2019-04-07T12:23:46.470Z,17.90
2019-04-07T12:24:45.799Z,19.80
2019-04-07T12:25:46.119Z,19.10
2019-04-07T12:26:46.295Z,16.60
2019-04-07T12:27:46.205Z,17.10
2019-04-07T12:28:49.137Z,15.60
2019-04-07T12:29:46.028Z,16.90
2019-04-07T12:30:45.726Z,17.50
2019-04-07T12:31:46.478Z,21.00
2019-04-07T12:32:46.563Z,15.90
2019-04-07T12:33:45.709Z,17.50
2019-04-07T12:34:47.746Z,17.90
2019-04-07T12:35:47.811Z,19.10
2019-04-07T12:36:46.648Z,16.00
2019-04-07T12:37:46.596Z,20.60
2019-04-07T12:38:46.200Z,15.60
2019-04-07T12:39:49.389Z,14.90
2019-04-07T12:40:46.223Z,13.90
2019-04-07T12:41:45.607Z,14.70
2019-04-07T12:42:45.595Z,15.40
2019-04-07T12:43:49.180Z,15.60
2019-04-07T12:44:46.188Z,15.40
2019-04-07T12:45:46.638Z,15.70
2019-04-07T12:46:46.417Z,15.00
2019-04-07T12:47:45.875Z,15.40
2019-04-07T12:48:45.540Z,16.00
2019-04-07T12:49:46.200Z,16.00
2019-04-07T12:50:48.992Z,15.00
2019-04-07T12:51:46.073Z,15.50
2019-04-07T12:52:46.219Z,16.60